Time;durP1;ratioP1;P1;durP2;ratioP2;P2;SDS_P1;SDS_P2;PMS_P1;PMS_P2;Temp;Humidity;BMP_temperature;BMP_pressure;BME280_temperature;BME280_humidity;BME280_pressure;Samples;Min_cycle;Max_cycle;Signal;HPM_P1;HPM_P2
2024/01/30 00:01:57;;;;;;;12.47;6.77;;;;;;;-0.29;100.00;102728.56;5012564;28;20038;-68
2024/01/30 00:04:23;;;;;;;10.17;6.00;;;;;;;-0.38;100.00;102700.47;5012693;28;20040;-68
2024/01/30 00:06:48;;;;;;;9.93;5.63;;;;;;;-0.28;100.00;102722.78;5013394;28;20049;-71
2024/01/30 00:09:14;;;;;;;12.33;5.83;;;;;;;-0.20;100.00;102728.75;5012825;28;20399;-67
2024/01/30 00:11:39;;;;;;;10.27;6.03;;;;;;;-0.23;100.00;102718.25;5011755;28;20383;-67
2024/01/30 00:14:05;;;;;;;10.23;6.37;;;;;;;-0.05;100.00;102739.78;5012308;28;20030;-66
2024/01/30 00:16:31;;;;;;;10.60;5.80;;;;;;;-0.35;100.00;102703.41;5013102;28;20053;-64
2024/01/30 00:18:56;;;;;;;8.40;4.97;;;;;;;-0.35;100.00;102720.25;5012238;28;20461;-67
2024/01/30 00:21:22;;;;;;;9.70;5.10;;;;;;;-0.35;100.00;102736.41;5012174;28;20034;-68
2024/01/30 00:23:47;;;;;;;11.77;6.13;;;;;;;-0.43;100.00;102733.69;5012080;28;20088;-69
2024/01/30 00:26:14;;;;;;;8.90;5.00;;;;;;;-0.37;100.00;102734.41;5012419;28;20105;-66
2024/01/30 00:28:41;;;;;;;8.93;5.33;;;;;;;-0.32;100.00;102743.47;5012934;28;20026;-66
2024/01/30 00:31:07;;;;;;;9.37;4.90;;;;;;;-1.56;100.00;102515.97;5011247;28;20492;-67
2024/01/30 00:33:32;;;;;;;9.00;4.17;;;;;;;-0.23;100.00;102733.47;5014158;28;20058;-67
2024/01/30 00:35:58;;;;;;;8.33;4.43;;;;;;;-0.10;100.00;102734.19;5011713;28;20041;-71
2024/01/30 00:38:24;;;;;;;8.33;4.33;;;;;;;-0.02;100.00;102735.97;5010552;28;20039;-67
2024/01/30 00:40:50;;;;;;;9.93;5.07;;;;;;;-0.07;100.00;102726.91;5011711;28;20080;-69
2024/01/30 00:43:15;;;;;;;8.53;5.10;;;;;;;-0.25;100.00;102691.75;5011944;28;20030;-68
2024/01/30 00:45:41;;;;;;;10.10;5.30;;;;;;;-0.21;100.00;102692.31;5011774;28;20478;-67
2024/01/30 00:48:07;;;;;;;8.73;4.70;;;;;;;0.02;100.00;102742.31;5012019;28;20052;-71
2024/01/30 00:50:32;;;;;;;9.23;4.73;;;;;;;0.03;100.00;102736.50;5011624;28;20038;-69
2024/01/30 00:52:57;;;;;;;9.20;5.37;;;;;;;0.04;100.00;102740.88;5012423;28;20104;-68
2024/01/30 00:55:23;;;;;;;10.00;4.97;;;;;;;-0.45;100.00;102659.88;5015140;28;20038;-69
2024/01/30 00:57:48;;;;;;;11.97;5.60;;;;;;;0.01;100.00;102745.56;5011791;28;20034;-68
2024/01/30 01:00:16;;;;;;;10.10;5.10;;;;;;;-0.50;100.00;102643.22;5011279;28;20033;-72
2024/01/30 01:02:42;;;;;;;9.50;5.10;;;;;;;-0.17;100.00;102693.56;5011367;28;20032;-66
2024/01/30 01:05:08;;;;;;;10.37;5.47;;;;;;;-0.33;100.00;102668.03;5010778;28;20030;-68
2024/01/30 01:07:34;;;;;;;10.23;5.53;;;;;;;-0.50;100.00;102631.47;5011026;28;20030;-67
2024/01/30 01:10:00;;;;;;;9.20;5.13;;;;;;;0.08;100.00;102729.44;5011163;28;20022;-67
2024/01/30 01:12:25;;;;;;;10.90;5.10;;;;;;;-0.43;100.00;102648.28;5011001;28;20037;-68
2024/01/30 01:14:52;;;;;;;8.83;4.87;;;;;;;-0.22;100.00;102705.72;5008132;28;20032;-70
2024/01/30 01:17:18;;;;;;;10.20;4.97;;;;;;;-0.11;100.00;102719.69;5010480;28;20045;-67
2024/01/30 01:19:44;;;;;;;9.00;4.90;;;;;;;-0.31;100.00;102689.44;5010704;28;20044;-69
2024/01/30 01:22:10;;;;;;;8.37;5.07;;;;;;;-0.17;100.00;102717.31;5008923;28;20116;-65
2024/01/30 01:24:36;;;;;;;8.63;4.57;;;;;;;-0.22;100.00;102715.88;5010812;28;20033;-68
2024/01/30 01:27:02;;;;;;;8.67;4.70;;;;;;;-0.50;100.00;102651.75;5008707;28;20026;-67
2024/01/30 01:29:28;;;;;;;9.00;4.73;;;;;;;-0.14;100.00;102709.16;5010745;28;20029;-67
2024/01/30 01:31:58;;;;;;;9.83;3.97;;;;;;;-0.27;100.00;102673.81;5010380;28;20033;-69
2024/01/30 01:34:24;;;;;;;6.55;3.60;;;;;;;-0.25;100.00;102685.06;5009245;28;20026;-67
2024/01/30 01:36:50;;;;;;;10.80;5.10;;;;;;;-0.57;100.00;102628.03;5010260;28;20069;-69
2024/01/30 01:39:16;;;;;;;9.03;4.60;;;;;;;-0.14;100.00;102698.09;5010322;28;20644;-68
2024/01/30 01:41:42;;;;;;;8.30;4.47;;;;;;;-0.13;100.00;102705.88;5009888;28;20022;-65
2024/01/30 01:44:08;;;;;;;11.17;4.97;;;;;;;-0.09;100.00;102697.00;5006730;28;20034;-69
2024/01/30 01:46:34;;;;;;;7.77;4.10;;;;;;;-0.18;100.00;102679.06;5007823;28;20034;-64
2024/01/30 01:49:02;;;;;;;9.20;4.43;;;;;;;-0.02;100.00;102696.97;5008130;28;20511;-65
2024/01/30 01:51:30;;;;;;;8.57;4.83;;;;;;;-0.57;100.00;102603.56;5011453;28;20030;-67
2024/01/30 01:53:57;;;;;;;8.77;3.87;;;;;;;-0.01;100.00;102703.88;5011060;28;20038;-66
2024/01/30 01:56:24;;;;;;;9.53;5.00;;;;;;;-0.01;100.00;102701.34;5008923;28;20342;-68
2024/01/30 01:58:49;;;;;;;9.60;5.23;;;;;;;0.03;100.00;102693.34;5010130;28;20179;-66
2024/01/30 02:01:18;;;;;;;10.77;5.03;;;;;;;-0.10;100.00;102685.03;5010674;28;20492;-66
2024/01/30 02:03:45;;;;;;;9.48;4.85;;;;;;;0.03;100.00;102689.91;5011385;28;20030;-66
2024/01/30 02:06:11;;;;;;;10.23;5.10;;;;;;;0.04;100.00;102681.53;5010555;28;20516;-66
2024/01/30 02:08:37;;;;;;;10.57;6.23;;;;;;;0.07;100.00;102681.91;5010481;28;20038;-68
2024/01/30 02:11:03;;;;;;;10.10;5.40;;;;;;;0.05;100.00;102702.03;5010155;28;20068;-66
2024/01/30 02:13:28;;;;;;;11.40;6.07;;;;;;;0.09;100.00;102683.00;5010487;28;20080;-65
2024/01/30 02:15:54;;;;;;;9.67;5.07;;;;;;;0.10;100.00;102682.22;5009055;28;20038;-66
2024/01/30 02:18:22;;;;;;;10.93;5.50;;;;;;;0.15;100.00;102678.63;5010710;28;20081;-66
2024/01/30 02:20:48;;;;;;;9.73;5.10;;;;;;;0.15;100.00;102679.50;5010094;28;20041;-67
2024/01/30 02:23:16;;;;;;;11.07;5.50;;;;;;;0.07;100.00;102671.75;5010386;28;20417;-66
2024/01/30 02:25:45;;;;;;;10.60;5.70;;;;;;;0.06;100.00;102675.88;5009751;28;20026;-66
2024/01/30 02:28:14;;;;;;;15.10;7.13;;;;;;;0.11;100.00;102696.75;5010283;28;20045;-66
2024/01/30 02:30:42;;;;;;;12.13;6.20;;;;;;;0.12;100.00;102694.38;5010265;28;20117;-66
2024/01/30 02:33:08;;;;;;;10.50;5.93;;;;;;;-0.20;100.00;102635.75;5009703;28;20120;-66
2024/01/30 02:35:34;;;;;;;10.40;5.73;;;;;;;0.13;100.00;102680.06;5009985;28;20130;-64
2024/01/30 02:37:59;;;;;;;11.67;6.27;;;;;;;0.11;100.00;102684.06;5010795;28;20041;-66
2024/01/30 02:40:25;;;;;;;13.97;6.17;;;;;;;0.03;100.00;102662.84;5010056;28;20061;-66
2024/01/30 02:42:50;;;;;;;11.23;5.93;;;;;;;0.11;100.00;102672.28;5009999;28;20030;-66
2024/01/30 02:45:16;;;;;;;11.60;6.80;;;;;;;-0.30;100.00;102604.03;5010066;28;20512;-73
2024/01/30 02:47:41;;;;;;;12.30;6.60;;;;;;;0.09;100.00;102662.66;5009768;28;20026;-70
2024/01/30 02:50:07;;;;;;;11.37;6.40;;;;;;;0.10;100.00;102670.47;5009719;28;20057;-69
2024/01/30 02:52:33;;;;;;;12.73;6.87;;;;;;;-0.05;100.00;102633.13;5007525;28;20432;-66
2024/01/30 02:54:58;;;;;;;11.63;6.17;;;;;;;-0.28;100.00;102592.44;5009255;28;20057;-73
2024/01/30 02:57:24;;;;;;;14.77;7.77;;;;;;;0.14;100.00;102670.06;5010338;28;20065;-65
2024/01/30 02:59:49;;;;;;;11.13;6.10;;;;;;;0.18;100.00;102666.25;5009922;28;20040;-65
2024/01/30 03:02:15;;;;;;;10.87;6.83;;;;;;;0.04;100.00;102646.91;5009857;28;20038;-66
2024/01/30 03:04:42;;;;;;;10.23;5.33;;;;;;;0.20;100.00;102663.88;5009962;28;20091;-66
2024/01/30 03:07:08;;;;;;;11.80;5.93;;;;;;;0.19;100.00;102662.97;5010160;28;20121;-69
2024/01/30 03:09:33;;;;;;;12.63;6.73;;;;;;;0.19;100.00;102659.53;5010247;28;20108;-66
2024/01/30 03:11:59;;;;;;;13.77;6.70;;;;;;;0.24;100.00;102663.50;5009676;28;20033;-65
2024/01/30 03:14:24;;;;;;;13.67;6.10;;;;;;;0.20;100.00;102651.16;5008301;28;20025;-66
2024/01/30 03:16:50;;;;;;;11.87;6.33;;;;;;;0.27;100.00;102649.50;5010368;28;20394;-66
2024/01/30 03:19:15;;;;;;;11.93;6.00;;;;;;;0.31;100.00;102645.66;5009299;28;20038;-68
2024/01/30 03:21:41;;;;;;;10.03;5.90;;;;;;;0.36;100.00;102646.19;5009717;28;20500;-69
2024/01/30 03:24:06;;;;;;;9.93;5.53;;;;;;;-0.15;100.00;102544.84;5009236;28;20037;-67
2024/01/30 03:26:33;;;;;;;13.40;6.50;;;;;;;0.44;100.00;102638.72;5009448;28;20049;-66
2024/01/30 03:28:58;;;;;;;13.07;6.67;;;;;;;0.49;100.00;102639.22;5010005;28;20088;-65
2024/01/30 03:31:24;;;;;;;12.40;6.43;;;;;;;0.02;100.00;102553.50;5009806;28;20398;-66
2024/01/30 03:33:49;;;;;;;13.07;6.43;;;;;;;0.56;100.00;102639.19;5009126;28;20026;-67
2024/01/30 03:36:15;;;;;;;11.17;5.90;;;;;;;0.58;100.00;102641.91;5009377;28;20109;-67
2024/01/30 03:38:41;;;;;;;12.57;6.37;;;;;;;0.60;100.00;102636.25;5009058;28;20543;-67
2024/01/30 03:41:12;;;;;;;14.33;6.60;;;;;;;0.64;100.00;102652.75;5009507;28;20038;-72
2024/01/30 03:43:37;;;;;;;13.57;6.30;;;;;;;0.65;100.00;102654.56;5010004;28;20034;-66
2024/01/30 03:46:03;;;;;;;12.73;6.30;;;;;;;0.67;100.00;102655.63;5009334;28;20119;-66
2024/01/30 03:48:29;;;;;;;11.00;6.47;;;;;;;0.67;100.00;102653.09;4990682;28;20056;-66
2024/01/30 03:50:55;;;;;;;12.80;6.27;;;;;;;0.57;100.00;102661.31;5009206;28;20030;-66
2024/01/30 03:53:22;;;;;;;13.97;7.00;;;;;;;0.47;100.00;102639.06;5009210;28;20088;-67
2024/01/30 03:55:48;;;;;;;14.37;6.60;;;;;;;0.55;100.00;102647.56;5009894;28;20105;-66
2024/01/30 03:58:13;;;;;;;10.70;6.30;;;;;;;0.53;100.00;102646.47;5009057;28;20125;-66
2024/01/30 04:00:39;;;;;;;10.70;6.00;;;;;;;0.55;100.00;102645.00;5008852;28;20493;-67
2024/01/30 04:03:04;;;;;;;9.70;5.80;;;;;;;0.55;100.00;102644.09;5009836;28;20034;-72
2024/01/30 04:05:30;;;;;;;13.20;6.13;;;;;;;0.34;100.00;102604.47;5009249;28;20489;-66
2024/01/30 04:07:56;;;;;;;13.37;6.87;;;;;;;0.58;100.00;102637.72;4993748;28;20038;-66
2024/01/30 04:10:21;;;;;;;14.07;7.73;;;;;;;-0.30;100.00;102478.03;5012514;28;20022;-66
2024/01/30 04:12:47;;;;;;;12.43;6.47;;;;;;;0.63;100.00;102653.50;5012404;28;20244;-66
2024/01/30 04:15:13;;;;;;;12.67;6.87;;;;;;;0.58;100.00;102626.66;5013163;28;20030;-73
2024/01/30 04:17:39;;;;;;;12.30;6.97;;;;;;;0.70;100.00;102634.72;5012546;28;20429;-65
2024/01/30 04:20:06;;;;;;;12.27;6.90;;;;;;;0.79;100.00;102651.91;5012742;28;20054;-66
2024/01/30 04:22:31;;;;;;;15.23;6.47;;;;;;;0.83;100.00;102648.09;5012272;28;20103;-66
2024/01/30 04:24:57;;;;;;;10.37;5.90;;;;;;;0.88;100.00;102644.41;5012229;28;20478;-66
2024/01/30 04:27:22;;;;;;;10.23;5.83;;;;;;;0.87;100.00;102646.78;5012463;28;20496;-66
2024/01/30 04:29:48;;;;;;;10.60;5.43;;;;;;;0.91;100.00;102649.84;5012310;28;20409;-65
2024/01/30 04:32:14;;;;;;;11.87;6.23;;;;;;;0.87;100.00;102651.88;5012611;28;20119;-66
2024/01/30 04:34:40;;;;;;;11.03;6.13;;;;;;;0.92;100.00;102663.47;5013021;28;20117;-66
2024/01/30 04:37:06;;;;;;;12.77;5.83;;;;;;;0.96;100.00;102658.00;5012225;28;20271;-67
2024/01/30 04:39:33;;;;;;;9.33;5.20;;;;;;;0.99;100.00;102658.31;5012350;28;20536;-67
2024/01/30 04:41:59;;;;;;;13.30;6.57;;;;;;;0.97;100.00;102654.69;5012242;28;20030;-67
2024/01/30 04:44:25;;;;;;;11.87;6.00;;;;;;;0.94;100.00;102651.81;5010726;28;20087;-67
2024/01/30 04:46:50;;;;;;;13.67;6.53;;;;;;;0.92;100.00;102654.22;5012143;28;20037;-68
2024/01/30 04:49:16;;;;;;;13.03;6.77;;;;;;;0.89;100.00;102650.41;5013499;28;20042;-68
2024/01/30 04:51:42;;;;;;;12.97;6.60;;;;;;;0.91;100.00;102664.19;5012823;28;20053;-67
2024/01/30 04:54:08;;;;;;;11.43;6.37;;;;;;;0.87;100.00;102650.22;5012147;28;20421;-66
2024/01/30 04:56:34;;;;;;;11.87;6.33;;;;;;;0.88;100.00;102648.59;5011840;28;20025;-64
2024/01/30 04:59:00;;;;;;;13.03;5.83;;;;;;;0.57;100.00;102600.31;5012196;28;20168;-66
2024/01/30 05:01:25;;;;;;;10.77;6.10;;;;;;;0.82;100.00;102653.00;5010983;28;20085;-67
2024/01/30 05:03:51;;;;;;;10.63;6.07;;;;;;;0.82;100.00;102648.81;5011178;28;20036;-67
2024/01/30 05:06:26;;;;;;;12.20;6.27;;;;;;;0.83;100.00;102654.81;5011578;28;20061;-65
2024/01/30 05:08:51;;;;;;;10.70;6.37;;;;;;;0.76;100.00;102637.97;5011133;28;20038;-67
2024/01/30 05:11:17;;;;;;;13.33;7.03;;;;;;;0.85;100.00;102654.25;5009717;28;20040;-66
2024/01/30 05:13:42;;;;;;;13.43;6.90;;;;;;;0.86;100.00;102656.06;5011330;28;20099;-66
2024/01/30 05:16:08;;;;;;;15.23;6.97;;;;;;;0.79;100.00;102648.47;4988037;28;20057;-72
2024/01/30 05:18:33;;;;;;;11.23;6.50;;;;;;;0.73;100.00;102641.06;5010692;28;20121;-66
2024/01/30 05:20:59;;;;;;;11.87;6.53;;;;;;;0.75;100.00;102659.06;5010851;28;20033;-67
2024/01/30 05:23:25;;;;;;;13.77;7.17;;;;;;;0.72;100.00;102659.59;5011207;28;20113;-65
2024/01/30 05:25:50;;;;;;;12.93;7.50;;;;;;;0.75;100.00;102667.56;5011958;28;20087;-66
2024/01/30 05:28:16;;;;;;;14.47;7.23;;;;;;;0.74;100.00;102657.25;5011099;28;20421;-66
2024/01/30 05:30:42;;;;;;;14.73;7.90;;;;;;;0.79;100.00;102664.63;5009009;28;20045;-66
2024/01/30 05:33:07;;;;;;;11.00;6.20;;;;;;;0.22;100.00;102560.81;5012141;28;20025;-70
2024/01/30 05:35:33;;;;;;;14.73;6.67;;;;;;;0.86;100.00;102675.50;5011225;28;20041;-65
2024/01/30 05:37:58;;;;;;;13.03;7.30;;;;;;;0.86;100.00;102670.41;5016454;28;20497;-65
2024/01/30 05:40:24;;;;;;;16.27;7.70;;;;;;;0.76;100.00;102655.75;5010544;28;20044;-66
2024/01/30 05:42:49;;;;;;;17.57;9.07;;;;;;;0.85;100.00;102676.22;5009926;28;20034;-68
2024/01/30 05:45:15;;;;;;;11.93;6.30;;;;;;;0.83;100.00;102675.16;5011296;28;20037;-65
2024/01/30 05:47:40;;;;;;;12.00;6.80;;;;;;;0.89;100.00;102684.38;5009600;28;20490;-66
2024/01/30 05:50:07;;;;;;;11.77;6.23;;;;;;;0.89;100.00;102675.84;5009407;28;20048;-67
2024/01/30 05:52:32;;;;;;;12.40;6.93;;;;;;;0.54;100.00;102609.25;5011683;28;20034;-66
2024/01/30 05:54:57;;;;;;;12.13;7.00;;;;;;;0.95;100.00;102676.53;5010674;28;20509;-66
2024/01/30 05:57:25;;;;;;;13.33;7.70;;;;;;;0.99;100.00;102677.78;5010837;28;20112;-65
2024/01/30 05:59:51;;;;;;;12.87;6.37;;;;;;;0.99;100.00;102681.22;5010993;28;20040;-66
2024/01/30 06:02:17;;;;;;;11.77;6.57;;;;;;;0.59;100.00;102614.09;5011126;28;20108;-66
2024/01/30 06:04:44;;;;;;;16.47;6.77;;;;;;;0.99;100.00;102686.31;5011255;28;20104;-67
2024/01/30 06:07:09;;;;;;;16.17;6.30;;;;;;;0.94;100.00;102677.25;5011518;28;20057;-67
2024/01/30 06:09:35;;;;;;;16.83;8.20;;;;;;;0.99;100.00;102687.97;5005113;28;20641;-67
2024/01/30 06:12:00;;;;;;;13.00;7.17;;;;;;;0.98;100.00;102686.13;5006419;28;20026;-67
2024/01/30 06:14:26;;;;;;;14.73;7.57;;;;;;;0.92;100.00;102684.72;5010715;28;20573;-66
2024/01/30 06:16:51;;;;;;;16.23;8.20;;;;;;;0.77;100.00;102660.09;5010910;28;20058;-68
2024/01/30 06:19:17;;;;;;;14.50;7.83;;;;;;;0.77;100.00;102670.28;5011006;28;20124;-66
2024/01/30 06:21:42;;;;;;;17.10;8.63;;;;;;;0.92;100.00;102687.28;5010503;28;20029;-67
2024/01/30 06:24:08;;;;;;;16.67;8.57;;;;;;;0.94;100.00;102679.81;5010036;28;20034;-67
2024/01/30 06:26:34;;;;;;;16.83;8.20;;;;;;;0.94;100.00;102687.44;5009355;28;20018;-66
2024/01/30 06:29:00;;;;;;;13.37;7.80;;;;;;;0.89;100.00;102684.38;5010674;28;20030;-70
2024/01/30 06:31:25;;;;;;;15.07;7.70;;;;;;;0.59;100.00;102633.56;5007900;28;20092;-66
2024/01/30 06:33:51;;;;;;;16.47;8.40;;;;;;;0.88;100.00;102689.28;5010820;28;20033;-66
2024/01/30 06:36:16;;;;;;;16.23;7.90;;;;;;;0.85;100.00;102689.84;5010496;28;20058;-65
2024/01/30 06:38:42;;;;;;;15.97;9.23;;;;;;;0.78;100.00;102682.28;5010536;28;20540;-66
2024/01/30 06:41:07;;;;;;;18.40;8.50;;;;;;;0.42;100.00;102627.47;5010696;28;20037;-65
2024/01/30 06:43:32;;;;;;;14.97;8.43;;;;;;;0.78;100.00;102687.34;5011130;28;20096;-65
2024/01/30 06:45:59;;;;;;;13.90;7.00;;;;;;;0.69;100.00;102679.59;5010676;28;20050;-66
2024/01/30 06:48:25;;;;;;;14.93;8.00;;;;;;;0.68;100.00;102677.78;5010299;28;20121;-65
2024/01/30 06:50:53;;;;;;;15.57;8.83;;;;;;;0.84;100.00;102707.50;5011454;28;20114;-65
2024/01/30 06:53:19;;;;;;;12.77;6.72;;;;;;;0.71;100.00;102678.16;5010487;28;20052;-67
2024/01/30 06:55:45;;;;;;;15.47;8.30;;;;;;;0.87;100.00;102711.25;5011046;28;20033;-66
2024/01/30 06:58:10;;;;;;;16.20;9.43;;;;;;;0.86;100.00;102708.56;5010290;28;20473;-66
2024/01/30 07:00:36;;;;;;;18.70;9.27;;;;;;;0.87;100.00;102720.53;5010235;28;20037;-66
2024/01/30 07:03:02;;;;;;;14.33;7.70;;;;;;;0.94;100.00;102725.59;5008492;28;20477;-66
2024/01/30 07:05:27;;;;;;;17.27;9.07;;;;;;;0.36;100.00;102621.69;5008501;28;20038;-66
2024/01/30 07:07:53;;;;;;;16.07;9.10;;;;;;;0.96;100.00;102724.13;4999633;28;20029;-65
2024/01/30 07:10:18;;;;;;;13.97;8.17;;;;;;;0.98;100.00;102727.72;5006163;28;20022;-66
2024/01/30 07:12:44;;;;;;;18.33;9.50;;;;;;;0.83;100.00;102713.31;5010048;28;20030;-66
2024/01/30 07:15:10;;;;;;;15.10;8.30;;;;;;;0.89;100.00;102747.94;5010987;28;20822;-65
2024/01/30 07:17:36;;;;;;;15.40;8.03;;;;;;;0.48;100.00;102647.59;5009886;28;20053;-66
2024/01/30 07:20:03;;;;;;;17.87;8.50;;;;;;;0.85;100.00;102716.91;5010460;28;20038;-66
2024/01/30 07:22:31;;;;;;;16.10;8.47;;;;;;;0.91;100.00;102727.75;5009808;28;20029;-65
2024/01/30 07:24:56;;;;;;;11.67;6.70;;;;;;;0.43;100.00;102654.69;5007839;28;20037;-67
2024/01/30 07:27:22;;;;;;;16.50;7.57;;;;;;;1.01;100.00;102745.91;5009706;28;20409;-66
2024/01/30 07:29:47;;;;;;;14.80;7.77;;;;;;;0.47;100.00;102649.25;5008620;28;20112;-66
2024/01/30 07:32:13;;;;;;;13.87;7.87;;;;;;;0.56;100.00;102658.59;5009772;28;20113;-66
2024/01/30 07:34:38;;;;;;;14.90;6.77;;;;;;;0.96;100.00;102724.13;5007545;28;20034;-66
2024/01/30 07:37:04;;;;;;;13.63;7.67;;;;;;;1.10;100.00;102749.44;5010409;28;20504;-66
2024/01/30 07:39:29;;;;;;;16.37;8.37;;;;;;;1.12;100.00;102741.97;5010093;28;20022;-65
2024/01/30 07:41:55;;;;;;;14.87;8.53;;;;;;;1.17;100.00;102745.06;5011274;28;20029;-66
2024/01/30 07:44:20;;;;;;;12.90;7.77;;;;;;;0.85;100.00;102682.22;5013473;28;20121;-66
2024/01/30 07:46:46;;;;;;;14.93;8.20;;;;;;;1.22;100.00;102738.81;5014840;28;20022;-65
2024/01/30 07:49:14;;;;;;;14.27;8.60;;;;;;;1.20;100.00;102735.22;5014007;28;20033;-65
2024/01/30 07:51:39;;;;;;;12.70;7.90;;;;;;;1.22;100.00;102738.81;5000718;28;20052;-65
2024/01/30 07:54:05;;;;;;;12.68;7.95;;;;;;;1.19;100.00;102726.69;5011137;28;20124;-69
2024/01/30 07:56:30;;;;;;;13.03;7.30;;;;;;;1.24;100.00;102738.25;5013755;28;20041;-66
2024/01/30 07:58:56;;;;;;;13.35;7.07;;;;;;;1.22;100.00;102718.47;5013799;28;20141;-65
2024/01/30 08:01:21;;;;;;;11.45;6.30;;;;;;;1.27;100.00;102724.97;5013493;28;20045;-65
2024/01/30 08:03:47;;;;;;;12.27;6.97;;;;;;;1.32;100.00;102726.41;5013133;28;20033;-66
2024/01/30 08:06:12;;;;;;;13.80;6.72;;;;;;;1.33;100.00;102730.75;5013889;28;20116;-66
2024/01/30 08:08:38;;;;;;;12.45;6.80;;;;;;;1.37;100.00;102735.47;5013100;28;20042;-67
2024/01/30 08:11:03;;;;;;;12.85;7.32;;;;;;;1.42;100.00;102731.78;5013468;28;20042;-65
2024/01/30 08:13:29;;;;;;;13.10;6.88;;;;;;;1.47;100.00;102731.38;5013058;28;20464;-65
2024/01/30 08:15:54;;;;;;;12.55;6.82;;;;;;;1.01;100.00;102643.22;5013268;28;20033;-66
2024/01/30 08:18:20;;;;;;;10.52;6.38;;;;;;;1.50;100.00;102724.09;5012727;28;20050;-65
2024/01/30 08:20:45;;;;;;;14.23;7.30;;;;;;;1.47;100.00;102724.66;5013004;28;20042;-65
2024/01/30 08:23:11;;;;;;;11.20;5.93;;;;;;;1.44;100.00;102720.09;5012987;28;20032;-66
2024/01/30 08:25:36;;;;;;;12.32;6.07;;;;;;;1.43;100.00;102718.31;5013886;28;20026;-65
2024/01/30 08:28:02;;;;;;;11.95;6.72;;;;;;;1.46;100.00;102710.13;5012984;28;20042;-66
2024/01/30 08:30:27;;;;;;;10.90;6.20;;;;;;;1.53;100.00;102707.47;5012789;28;20053;-65
2024/01/30 08:32:53;;;;;;;10.40;5.68;;;;;;;1.36;100.00;102690.38;5012979;28;20026;-67
2024/01/30 08:35:18;;;;;;;10.57;5.40;;;;;;;1.41;100.00;102675.63;5012719;28;20037;-65
2024/01/30 08:37:44;;;;;;;11.55;7.00;;;;;;;1.64;100.00;102702.69;5013266;28;20470;-65
2024/01/30 08:40:10;;;;;;;11.88;5.82;;;;;;;1.67;100.00;102711.56;5012857;28;20038;-66
2024/01/30 08:42:35;;;;;;;9.23;5.30;;;;;;;1.77;100.00;102704.16;5012742;28;20058;-66
2024/01/30 08:45:01;;;;;;;10.43;6.32;;;;;;;1.80;100.00;102698.50;5013049;28;20038;-66
2024/01/30 08:47:27;;;;;;;11.23;5.72;;;;;;;1.83;100.00;102695.38;5012424;28;20064;-67
2024/01/30 08:49:52;;;;;;;14.70;6.90;;;;;;;1.84;100.00;102697.19;5012268;28;20018;-65
2024/01/30 08:52:18;;;;;;;11.50;5.72;;;;;;;1.89;100.00;102691.84;5012080;28;20034;-66
2024/01/30 08:54:43;;;;;;;9.68;4.55;;;;;;;1.55;100.00;102626.22;5012442;28;20084;-65
2024/01/30 08:57:09;;;;;;;9.55;5.22;;;;;;;1.87;100.00;102677.13;5012686;28;20068;-65
2024/01/30 08:59:34;;;;;;;10.73;5.45;;;;;;;2.00;100.00;102695.56;5012785;28;20081;-65
2024/01/30 09:02:00;;;;;;;10.02;5.35;;;;;;;2.04;100.00;102692.59;5012380;28;20120;-65
2024/01/30 09:04:25;;;;;;;9.10;5.00;;;;;;;2.10;100.00;102700.88;5012312;28;20030;-67
2024/01/30 09:06:52;;;;;;;9.70;4.82;;;;;;;2.19;100.00;102692.44;5012824;28;20026;-66
2024/01/30 09:09:18;;;;;;;10.82;5.65;;;;;;;2.20;100.00;102692.59;5010622;28;20049;-66
2024/01/30 09:11:44;;;;;;;7.75;4.63;;;;;;;2.11;99.93;102686.53;5012013;28;20417;-66
2024/01/30 09:14:09;;;;;;;11.45;5.35;;;;;;;2.23;99.18;102702.19;5011749;28;20524;-65
2024/01/30 09:16:35;;;;;;;10.52;5.38;;;;;;;2.32;100.00;102699.72;5012520;28;20062;-70
2024/01/30 09:19:01;;;;;;;11.23;4.88;;;;;;;2.30;100.00;102679.19;5009462;28;20045;-65
2024/01/30 09:21:27;;;;;;;27.35;5.88;;;;;;;2.05;97.97;102640.00;5011836;28;20033;-66
2024/01/30 09:23:55;;;;;;;47.15;6.47;;;;;;;2.36;97.20;102684.91;5011822;28;20041;-67
2024/01/30 09:26:21;;;;;;;21.77;4.47;;;;;;;2.38;98.13;102700.38;5015129;28;20037;-65
2024/01/30 09:28:47;;;;;;;12.65;5.47;;;;;;;2.38;97.40;102677.44;5011551;28;20482;-67
2024/01/30 09:31:12;;;;;;;22.60;4.55;;;;;;;2.34;98.51;102678.75;5011580;28;20033;-65
2024/01/30 09:33:38;;;;;;;20.77;6.45;;;;;;;2.42;98.60;102683.03;5010623;28;20424;-66
2024/01/30 09:36:05;;;;;;;9.75;3.80;;;;;;;2.41;97.70;102687.97;4993746;28;20048;-67
2024/01/30 09:38:31;;;;;;;34.08;5.20;;;;;;;2.43;97.54;102681.41;5011443;28;20112;-66
2024/01/30 09:41:01;;;;;;;16.15;4.78;;;;;;;2.39;97.70;102675.06;5010149;28;20199;-66
2024/01/30 09:43:32;;;;;;;20.67;4.28;;;;;;;2.37;96.50;102676.53;5011443;28;20029;-65
2024/01/30 09:46:00;;;;;;;13.75;4.65;;;;;;;2.41;96.60;102671.00;5012142;28;20034;-65
2024/01/30 09:48:26;;;;;;;10.80;4.10;;;;;;;2.32;97.12;102657.31;5011308;28;20379;-66
2024/01/30 09:50:53;;;;;;;13.20;3.78;;;;;;;2.03;96.41;102610.91;5010827;28;20045;-65
2024/01/30 09:53:19;;;;;;;17.42;4.60;;;;;;;2.42;96.46;102679.59;5011244;28;20497;-66
2024/01/30 09:55:46;;;;;;;19.05;5.18;;;;;;;2.36;96.57;102668.75;5011704;28;20026;-65
2024/01/30 09:58:12;;;;;;;13.40;4.38;;;;;;;2.56;97.66;102678.47;5011146;28;20034;-66
2024/01/30 10:00:37;;;;;;;8.82;4.88;;;;;;;2.57;98.05;102678.63;5011069;28;20041;-64
2024/01/30 10:03:03;;;;;;;14.68;5.68;;;;;;;2.52;96.58;102679.81;5011742;28;20156;-66
2024/01/30 10:05:33;;;;;;;12.90;3.80;;;;;;;2.55;96.40;102689.41;5010585;28;20085;-65
2024/01/30 10:07:59;;;;;;;8.63;4.10;;;;;;;2.54;96.68;102679.94;4975880;28;20432;-65
2024/01/30 10:10:24;;;;;;;7.93;4.25;;;;;;;2.46;97.15;102686.81;5010934;28;20121;-66
2024/01/30 10:12:50;;;;;;;11.90;4.93;;;;;;;1.89;98.13;102587.41;5011255;28;20137;-66
2024/01/30 10:15:17;;;;;;;10.00;4.90;;;;;;;2.38;97.61;102680.91;5011238;28;20536;-67
2024/01/30 10:17:44;;;;;;;14.95;5.80;;;;;;;2.45;98.58;102684.09;5010705;28;20462;-66
2024/01/30 10:20:10;;;;;;;9.18;4.57;;;;;;;2.41;98.21;102677.78;4992036;28;20108;-65
2024/01/30 10:22:36;;;;;;;8.63;4.78;;;;;;;2.44;98.20;102683.19;5008497;28;20087;-67
2024/01/30 10:25:03;;;;;;;8.27;4.90;;;;;;;2.38;98.02;102675.81;4994612;28;20026;-67
2024/01/30 10:27:29;;;;;;;6.50;4.55;;;;;;;2.39;98.25;102675.06;5002796;28;20025;-66
2024/01/30 10:29:55;;;;;;;9.30;5.13;;;;;;;2.33;97.90;102676.03;5010491;28;20418;-68
2024/01/30 10:32:21;;;;;;;10.27;4.78;;;;;;;2.19;98.59;102644.91;5024922;28;20084;-68
2024/01/30 10:34:47;;;;;;;9.57;5.30;;;;;;;1.91;98.06;102590.13;5009243;28;20042;-68
2024/01/30 10:37:15;;;;;;;9.98;5.50;;;;;;;2.41;98.83;102673.56;5010693;28;20493;-69
2024/01/30 10:39:41;;;;;;;11.02;5.63;;;;;;;2.46;98.59;102670.63;5010456;28;20453;-68
2024/01/30 10:42:12;;;;;;;9.93;4.75;;;;;;;2.47;96.92;102668.22;5009783;28;20486;-67
2024/01/30 10:44:56;;;;;;;12.30;4.65;;;;;;;2.39;96.55;102664.88;5009688;28;20089;-65
2024/01/30 10:47:26;;;;;;;11.35;4.45;;;;;;;2.34;96.32;102645.59;5010234;28;20117;-69
2024/01/30 10:49:53;;;;;;;15.38;4.88;;;;;;;2.54;97.91;102670.69;5007031;28;20062;-66
2024/01/30 10:52:20;;;;;;;8.52;3.80;;;;;;;2.35;96.55;102651.63;5010030;28;20404;-66
2024/01/30 10:54:47;;;;;;;12.02;3.92;;;;;;;2.39;97.22;102652.13;5009381;28;20032;-67
2024/01/30 10:57:15;;;;;;;11.75;4.47;;;;;;;2.37;96.53;102624.66;5009973;28;20440;-67
2024/01/30 10:59:42;;;;;;;8.73;4.50;;;;;;;2.46;95.99;102647.66;5009896;28;20452;-65
2024/01/30 11:02:09;;;;;;;8.80;4.13;;;;;;;2.61;97.17;102662.00;5009806;28;20761;-66
2024/01/30 11:04:40;;;;;;;8.10;3.78;;;;;;;2.64;97.09;102652.16;5010420;28;20692;-67
2024/01/30 11:07:16;;;;;;;10.45;3.95;;;;;;;2.66;96.71;102663.38;5008018;28;20028;-65
2024/01/30 11:09:49;;;;;;;7.72;4.07;;;;;;;2.65;96.32;102661.56;5006955;28;20493;-67
2024/01/30 11:12:14;;;;;;;11.13;4.63;;;;;;;2.62;96.56;102657.78;5007833;28;20049;-68
2024/01/30 11:14:40;;;;;;;14.82;4.88;;;;;;;2.56;96.83;102648.78;5009193;28;20042;-66